createdAt,value
2018-12-26T00:02:28.432Z,3.49
2018-12-26T00:04:58.106Z,3.44
2018-12-26T00:07:27.798Z,3.50
2018-12-26T00:09:57.437Z,3.44
2018-12-26T00:12:27.123Z,3.45
2018-12-26T00:14:56.780Z,3.39
2018-12-26T00:17:26.368Z,3.39
2018-12-26T00:20:14.994Z,3.37
2018-12-26T00:22:44.521Z,3.37
2018-12-26T00:25:14.203Z,3.29
2018-12-26T00:27:43.875Z,3.34
2018-12-26T00:30:14.297Z,3.37
2018-12-26T00:32:43.752Z,3.35
2018-12-26T00:35:13.284Z,3.33
2018-12-26T00:37:42.867Z,3.24
2018-12-26T00:40:12.467Z,3.27
2018-12-26T00:42:41.925Z,3.28
2018-12-26T00:45:11.507Z,3.26
2018-12-26T00:47:41.078Z,3.26
2018-12-26T00:50:10.625Z,3.29
2018-12-26T00:52:40.216Z,3.22
2018-12-26T00:55:09.829Z,3.19
2018-12-26T00:57:39.428Z,3.15
2018-12-26T01:00:28.372Z,3.19
2018-12-26T01:02:57.993Z,3.19
2018-12-26T01:05:27.530Z,3.16
2018-12-26T01:07:57.295Z,3.12
2018-12-26T01:10:45.739Z,3.13
2018-12-26T01:13:15.295Z,3.14
2018-12-26T01:15:44.828Z,3.14
2018-12-26T01:18:14.398Z,3.10
2018-12-26T01:20:44.254Z,3.15
2018-12-26T01:23:13.871Z,3.08
2018-12-26T01:25:43.444Z,3.07
2018-12-26T01:28:13.097Z,3.11
2018-12-26T01:30:42.701Z,3.10
2018-12-26T01:33:12.281Z,3.14
2018-12-26T01:35:41.879Z,3.12
2018-12-26T01:38:11.501Z,3.02
2018-12-26T01:40:41.072Z,3.03
2018-12-26T01:43:10.672Z,3.05
2018-12-26T01:45:59.162Z,3.11
2018-12-26T01:48:28.807Z,3.11
2018-12-26T01:50:58.427Z,2.97
2018-12-26T01:53:28.060Z,3.03
2018-12-26T01:55:57.615Z,3.00
2018-12-26T01:58:27.539Z,3.05
2018-12-26T02:00:57.200Z,3.00
2018-12-26T02:03:27.174Z,3.04
2018-12-26T02:05:56.740Z,3.07
2018-12-26T02:08:26.399Z,2.98
2018-12-26T02:10:56.041Z,2.97
2018-12-26T02:13:25.592Z,2.95
2018-12-26T02:15:55.127Z,2.96
2018-12-26T02:18:24.700Z,2.98
2018-12-26T02:20:54.387Z,2.97
2018-12-26T02:23:23.922Z,3.00
2018-12-26T02:25:53.490Z,2.98
2018-12-26T02:28:23.077Z,3.01
2018-12-26T02:30:52.738Z,2.94
2018-12-26T02:33:22.323Z,2.92
2018-12-26T02:38:27.548Z,2.92
2018-12-26T02:40:57.119Z,2.89
2018-12-26T02:43:26.795Z,2.94
2018-12-26T02:45:56.372Z,2.91
2018-12-26T02:48:26.082Z,2.89
2018-12-26T02:51:14.643Z,2.95
2018-12-26T02:54:23.417Z,2.90
2018-12-26T02:56:53.086Z,2.81
2018-12-26T02:59:41.641Z,2.84
2018-12-26T03:02:11.195Z,2.82
2018-12-26T03:04:40.856Z,2.83
2018-12-26T03:07:29.306Z,2.82
2018-12-26T03:09:58.954Z,2.74
2018-12-26T03:12:28.588Z,2.75
2018-12-26T03:14:58.220Z,2.74
2018-12-26T03:17:27.785Z,2.62
2018-12-26T03:19:57.374Z,2.78
2018-12-26T03:22:26.980Z,2.73
2018-12-26T03:24:56.588Z,2.72
2018-12-26T03:27:26.170Z,2.69
2018-12-26T03:29:55.721Z,2.64
2018-12-26T03:32:25.305Z,2.67
2018-12-26T03:34:55.061Z,2.58
2018-12-26T03:37:24.627Z,2.81
2018-12-26T03:43:28.470Z,2.61
2018-12-26T03:48:53.786Z,2.45
2018-12-26T03:51:42.197Z,2.38
2018-12-26T03:54:11.753Z,2.52
2018-12-26T03:56:41.353Z,2.57
2018-12-26T03:59:11.297Z,2.53
2018-12-26T04:01:40.900Z,2.50
2018-12-26T04:04:10.452Z,2.38
2018-12-26T04:06:40.064Z,2.45
2018-12-26T04:09:28.851Z,2.37
2018-12-26T04:11:58.412Z,2.41
2018-12-26T04:14:28.047Z,2.43
2018-12-26T04:16:57.698Z,2.43
2018-12-26T04:19:27.389Z,2.34
2018-12-26T04:21:57.008Z,2.28
2018-12-26T04:24:26.604Z,2.31
2018-12-26T04:26:56.534Z,2.26
2018-12-26T04:29:26.101Z,2.36
2018-12-26T04:31:55.728Z,2.44
2018-12-26T04:34:44.347Z,2.38
2018-12-26T04:37:13.892Z,2.38
2018-12-26T04:39:43.496Z,2.32
2018-12-26T04:42:13.058Z,2.35
2018-12-26T04:44:42.581Z,2.31
2018-12-26T04:47:12.162Z,2.38
2018-12-26T04:49:41.796Z,2.42
2018-12-26T04:52:11.400Z,2.50
2018-12-26T04:54:40.957Z,2.48
2018-12-26T04:57:10.529Z,2.44
2018-12-26T04:59:40.066Z,2.34
2018-12-26T05:02:09.630Z,2.40
2018-12-26T05:04:58.073Z,2.35
2018-12-26T05:07:27.687Z,2.45
2018-12-26T05:09:57.260Z,2.39
2018-12-26T05:12:26.872Z,2.28
2018-12-26T05:14:56.489Z,2.19
2018-12-26T05:17:26.047Z,2.24
2018-12-26T05:19:55.647Z,2.41
2018-12-26T05:22:44.116Z,2.24
2018-12-26T05:25:13.765Z,2.27
2018-12-26T05:27:43.359Z,2.09
2018-12-26T05:30:12.962Z,2.10
2018-12-26T05:32:42.515Z,2.13
2018-12-26T05:35:12.106Z,2.07
2018-12-26T05:37:41.712Z,2.03
2018-12-26T05:40:11.366Z,2.09
2018-12-26T05:42:41.024Z,2.17
2018-12-26T05:45:10.632Z,2.18
2018-12-26T05:47:40.515Z,2.05
2018-12-26T05:50:10.199Z,2.03
2018-12-26T05:52:39.762Z,2.08
2018-12-26T05:55:09.387Z,2.05
2018-12-26T05:57:42.928Z,1.98
2018-12-26T06:00:29.178Z,1.97
2018-12-26T06:02:58.909Z,1.94
2018-12-26T06:05:28.509Z,1.95
2018-12-26T06:07:58.063Z,1.92
2018-12-26T06:10:27.691Z,1.97
2018-12-26T06:12:57.241Z,1.89
2018-12-26T06:15:26.959Z,1.91
2018-12-26T06:17:56.506Z,2.01
2018-12-26T06:20:45.235Z,2.09
2018-12-26T06:23:14.853Z,1.99
2018-12-26T06:25:44.499Z,2.00
2018-12-26T06:28:14.078Z,1.97
2018-12-26T06:30:43.675Z,1.99
2018-12-26T06:33:13.642Z,2.12
2018-12-26T06:35:43.288Z,2.06
2018-12-26T06:38:12.854Z,2.07
2018-12-26T06:40:42.537Z,2.07
2018-12-26T06:43:12.199Z,2.03
2018-12-26T06:45:41.767Z,2.08
2018-12-26T06:48:11.383Z,2.06
2018-12-26T06:50:40.993Z,1.98
2018-12-26T06:53:10.610Z,1.98
2018-12-26T06:55:58.962Z,1.94
2018-12-26T07:01:17.050Z,2.01
2018-12-26T07:03:46.890Z,2.01
2018-12-26T07:06:16.427Z,1.97
2018-12-26T07:08:46.002Z,1.99
2018-12-26T07:16:39.012Z,2.09
2018-12-26T07:19:08.619Z,2.15
2018-12-26T07:21:38.167Z,2.24
2018-12-26T07:24:26.738Z,2.24
2018-12-26T07:26:56.338Z,1.99
2018-12-26T07:29:25.978Z,2.18
2018-12-26T07:31:55.580Z,2.35
2018-12-26T07:34:25.250Z,2.47
2018-12-26T07:36:54.844Z,2.45
2018-12-26T07:39:24.513Z,2.37
2018-12-26T07:41:54.086Z,2.37
2018-12-26T07:44:23.650Z,2.33
2018-12-26T07:46:53.237Z,2.32
2018-12-26T07:49:22.820Z,2.29
2018-12-26T07:51:52.433Z,2.16
2018-12-26T07:54:22.214Z,2.16
2018-12-26T07:56:51.955Z,2.17
2018-12-26T07:59:21.616Z,2.28
2018-12-26T08:01:51.528Z,2.28
2018-12-26T08:04:21.220Z,2.29
2018-12-26T08:06:50.845Z,2.84
2018-12-26T08:09:20.591Z,3.07
2018-12-26T08:12:09.520Z,2.39
2018-12-26T08:14:39.061Z,2.19
2018-12-26T08:17:08.639Z,2.26
2018-12-26T08:19:38.463Z,2.23
2018-12-26T08:22:08.115Z,2.01
2018-12-26T08:24:37.802Z,2.19
2018-12-26T08:27:07.479Z,2.35
2018-12-26T08:29:37.128Z,2.22
2018-12-26T08:32:06.849Z,2.31
2018-12-26T08:34:55.271Z,2.37
2018-12-26T08:37:24.807Z,2.18
2018-12-26T08:39:54.393Z,2.21
2018-12-26T08:42:35.267Z,2.24
2018-12-26T08:47:40.250Z,2.20
2018-12-26T08:50:28.840Z,2.23
2018-12-26T08:53:17.333Z,2.29
2018-12-26T08:55:46.936Z,2.07
2018-12-26T08:58:35.557Z,2.18
2018-12-26T09:01:24.148Z,2.24
2018-12-26T09:03:53.691Z,2.36
2018-12-26T09:06:23.325Z,2.22
2018-12-26T09:08:53.371Z,2.25
2018-12-26T09:11:22.943Z,2.28
2018-12-26T09:14:11.548Z,2.08
2018-12-26T09:16:41.171Z,2.18
2018-12-26T09:19:10.880Z,2.13
2018-12-26T09:21:40.548Z,2.11
2018-12-26T09:24:29.192Z,2.02
2018-12-26T09:27:17.826Z,1.89
2018-12-26T09:29:47.551Z,1.84
2018-12-26T09:32:36.098Z,1.90
2018-12-26T09:35:24.703Z,2.13
2018-12-26T09:38:13.835Z,1.92
2018-12-26T09:40:44.003Z,1.96
2018-12-26T09:43:13.493Z,2.04
2018-12-26T09:45:43.091Z,2.09
2018-12-26T09:48:12.871Z,2.11
2018-12-26T09:50:42.524Z,2.37
2018-12-26T09:58:36.390Z,2.13
2018-12-26T10:01:06.047Z,2.06
2018-12-26T10:03:35.662Z,2.23
2018-12-26T10:06:12.552Z,2.24
2018-12-26T10:08:53.523Z,2.16
2018-12-26T10:11:23.262Z,2.18
2018-12-26T10:13:53.132Z,2.28
2018-12-26T10:16:22.805Z,2.30
2018-12-26T10:18:52.537Z,2.08
2018-12-26T10:21:22.191Z,2.25
2018-12-26T10:23:51.792Z,2.26
2018-12-26T10:26:21.489Z,2.22
2018-12-26T10:28:51.033Z,2.27
2018-12-26T10:31:20.797Z,2.18
2018-12-26T10:33:50.391Z,2.20
2018-12-26T10:36:19.931Z,2.35
2018-12-26T10:38:49.524Z,2.12
2018-12-26T10:41:19.399Z,2.24
2018-12-26T10:43:49.078Z,2.21
2018-12-26T10:46:18.680Z,2.13
2018-12-26T10:48:48.345Z,2.41
2018-12-26T10:51:17.902Z,2.27
2018-12-26T10:53:47.533Z,2.08
2018-12-26T10:56:17.785Z,2.21
2018-12-26T11:01:22.782Z,2.04
2018-12-26T11:03:52.492Z,2.17
2018-12-26T11:06:22.087Z,2.04
2018-12-26T11:11:34.322Z,2.00
2018-12-26T11:14:03.871Z,2.12
2018-12-26T11:16:33.494Z,2.04
2018-12-26T11:19:42.288Z,2.19
2018-12-26T11:22:30.834Z,2.09
2018-12-26T11:25:00.376Z,2.07
2018-12-26T11:27:29.911Z,2.11
2018-12-26T11:29:59.568Z,2.13
2018-12-26T11:32:29.117Z,2.25
2018-12-26T11:34:58.779Z,2.18
2018-12-26T11:37:28.315Z,2.23
2018-12-26T11:39:57.929Z,2.17
2018-12-26T11:42:27.516Z,2.14
2018-12-26T11:44:57.114Z,2.16
2018-12-26T11:47:26.660Z,2.33
2018-12-26T11:49:57.059Z,2.39
2018-12-26T11:52:26.652Z,2.31
2018-12-26T11:54:56.257Z,2.25
2018-12-26T11:57:25.831Z,2.48
2018-12-26T11:59:55.418Z,2.37
2018-12-26T12:02:24.972Z,2.34
2018-12-26T12:04:54.588Z,2.38
2018-12-26T12:07:24.147Z,2.31
2018-12-26T12:09:54.048Z,2.26
2018-12-26T12:12:23.603Z,2.35
2018-12-26T12:17:46.816Z,2.46
2018-12-26T12:20:16.518Z,2.50
2018-12-26T12:22:46.085Z,2.46
2018-12-26T12:25:15.701Z,2.57
2018-12-26T12:28:04.145Z,2.64
2018-12-26T12:30:52.714Z,2.60
2018-12-26T12:33:22.315Z,2.48
2018-12-26T12:35:51.847Z,2.69
2018-12-26T12:38:21.392Z,2.73
2018-12-26T12:40:50.965Z,2.51
2018-12-26T12:43:20.993Z,2.56
2018-12-26T12:46:09.594Z,2.55
2018-12-26T12:48:58.778Z,2.83
2018-12-26T12:51:28.383Z,2.64
2018-12-26T12:53:58.116Z,2.66
2018-12-26T12:56:27.774Z,2.82
2018-12-26T12:59:08.852Z,2.70
2018-12-26T13:01:38.648Z,2.59
2018-12-26T13:04:08.335Z,2.69
2018-12-26T13:06:38.051Z,2.74
2018-12-26T13:09:08.637Z,2.88
2018-12-26T13:11:38.243Z,2.74
2018-12-26T13:14:07.816Z,2.66
2018-12-26T13:16:37.489Z,2.64
2018-12-26T13:19:07.163Z,2.74
2018-12-26T13:21:36.786Z,2.68
2018-12-26T13:24:06.338Z,2.90
2018-12-26T13:26:35.933Z,2.71
2018-12-26T13:29:05.501Z,2.66
2018-12-26T13:31:35.163Z,2.82
2018-12-26T13:34:04.853Z,2.69
2018-12-26T13:36:34.414Z,2.74
2018-12-26T13:41:59.175Z,2.78
2018-12-26T13:44:28.737Z,2.86
2018-12-26T13:46:58.322Z,2.78
2018-12-26T13:49:28.058Z,2.74
2018-12-26T13:51:57.679Z,2.68
2018-12-26T13:54:27.339Z,2.74
2018-12-26T13:56:57.062Z,2.77
2018-12-26T13:59:26.791Z,2.82
2018-12-26T14:01:56.602Z,2.83
2018-12-26T14:04:26.340Z,2.74
2018-12-26T14:06:56.001Z,2.83
2018-12-26T14:09:25.747Z,2.78
2018-12-26T14:11:55.347Z,2.70
2018-12-26T14:14:25.056Z,2.80
2018-12-26T14:16:54.717Z,2.80
2018-12-26T14:19:24.325Z,2.77
2018-12-26T14:22:13.363Z,2.82
2018-12-26T14:24:42.896Z,2.92
2018-12-26T14:27:12.519Z,2.94
2018-12-26T14:29:42.609Z,2.92
2018-12-26T14:34:48.103Z,3.18
2018-12-26T14:37:17.711Z,3.19
2018-12-26T14:39:47.393Z,3.09
2018-12-26T14:42:17.072Z,3.08
2018-12-26T14:44:46.650Z,3.15
2018-12-26T14:47:16.342Z,3.13
2018-12-26T14:50:04.912Z,3.19
2018-12-26T14:52:34.564Z,3.24
2018-12-26T14:55:04.198Z,3.09
2018-12-26T14:57:52.721Z,3.05
2018-12-26T15:00:22.293Z,3.17
2018-12-26T15:03:10.749Z,3.16
2018-12-26T15:05:40.334Z,3.15
2018-12-26T15:08:09.888Z,3.21
2018-12-26T15:10:39.494Z,3.22
2018-12-26T15:13:09.138Z,3.19
2018-12-26T15:15:39.128Z,3.21
2018-12-26T15:18:08.765Z,3.17
2018-12-26T15:20:38.488Z,3.01
2018-12-26T15:23:08.590Z,3.03
2018-12-26T15:25:38.136Z,3.06
2018-12-26T15:28:07.673Z,3.10
2018-12-26T15:30:37.280Z,3.23
2018-12-26T15:33:06.928Z,2.93
2018-12-26T15:35:36.531Z,3.06
2018-12-26T15:38:06.105Z,3.05
2018-12-26T15:40:35.911Z,3.00
2018-12-26T15:43:05.532Z,2.96
2018-12-26T15:45:35.126Z,2.91
2018-12-26T15:48:04.697Z,3.06
2018-12-26T15:50:45.808Z,3.09
2018-12-26T15:53:15.390Z,3.09
2018-12-26T15:55:44.954Z,2.99
2018-12-26T15:58:14.677Z,2.97
2018-12-26T16:00:44.560Z,2.93
2018-12-26T16:03:14.213Z,2.92
2018-12-26T16:05:43.796Z,2.85
2018-12-26T16:08:13.376Z,2.83
2018-12-26T16:10:43.013Z,2.77
2018-12-26T16:15:47.718Z,2.83
2018-12-26T16:18:17.261Z,2.82
2018-12-26T16:20:46.909Z,2.88
2018-12-26T16:23:16.500Z,2.94
2018-12-26T16:25:46.118Z,3.01
2018-12-26T16:28:15.664Z,2.93
2018-12-26T16:30:46.322Z,2.96
2018-12-26T16:33:16.829Z,2.89
2018-12-26T16:35:46.597Z,2.95
2018-12-26T16:38:16.220Z,2.96
2018-12-26T16:40:45.945Z,2.92
2018-12-26T16:43:15.548Z,2.93
2018-12-26T16:45:45.219Z,2.95
2018-12-26T16:48:14.890Z,3.04
2018-12-26T16:50:44.696Z,3.17
2018-12-26T16:53:14.307Z,3.15
2018-12-26T16:55:43.877Z,3.05
2018-12-26T16:58:13.591Z,3.08
2018-12-26T17:03:31.853Z,3.27
2018-12-26T17:06:01.417Z,3.31
2018-12-26T17:08:31.062Z,3.40
2018-12-26T17:11:00.632Z,3.27
2018-12-26T17:13:30.219Z,3.26
2018-12-26T17:15:59.860Z,3.32
2018-12-26T17:18:29.655Z,3.34
2018-12-26T17:20:59.421Z,3.19
2018-12-26T17:23:29.028Z,3.13
2018-12-26T17:25:58.578Z,3.28
2018-12-26T17:28:47.231Z,3.18
2018-12-26T17:31:16.811Z,3.23
2018-12-26T17:33:46.567Z,3.28
2018-12-26T17:36:16.172Z,3.31
2018-12-26T17:38:45.803Z,3.37
2018-12-26T17:41:15.462Z,3.26
2018-12-26T17:43:45.051Z,3.19
2018-12-26T17:46:33.633Z,3.04
2018-12-26T17:49:03.242Z,3.01
2018-12-26T17:51:33.366Z,3.03
2018-12-26T17:54:14.253Z,3.09
2018-12-26T17:57:21.684Z,3.16
2018-12-26T18:00:22.805Z,3.06
2018-12-26T18:02:52.349Z,3.01
2018-12-26T18:05:21.987Z,3.12
2018-12-26T18:10:40.161Z,2.96
2018-12-26T18:13:09.763Z,2.94
2018-12-26T18:15:39.517Z,3.04
2018-12-26T18:18:09.098Z,3.12
2018-12-26T18:20:57.674Z,3.16
2018-12-26T18:23:27.260Z,3.12
2018-12-26T18:25:56.954Z,3.13
2018-12-26T18:28:26.543Z,3.26
2018-12-26T18:30:56.167Z,3.26
2018-12-26T18:33:44.798Z,3.27
2018-12-26T18:36:14.671Z,3.13
2018-12-26T18:38:44.615Z,3.03
2018-12-26T18:41:14.606Z,3.26
2018-12-26T18:43:44.172Z,3.24
2018-12-26T18:46:14.042Z,3.20
2018-12-26T18:48:45.133Z,3.14
2018-12-26T18:51:14.736Z,3.17
2018-12-26T18:56:19.411Z,2.99
2018-12-26T18:58:48.985Z,3.03
2018-12-26T19:01:37.758Z,3.16
2018-12-26T19:04:26.329Z,3.20
2018-12-26T19:07:14.991Z,3.20
2018-12-26T19:15:15.426Z,3.21
2018-12-26T19:20:52.471Z,3.12
2018-12-26T19:23:22.124Z,3.04
2018-12-26T19:26:10.802Z,3.13
2018-12-26T19:28:40.473Z,3.11
2018-12-26T19:31:10.064Z,3.29
2018-12-26T19:33:39.851Z,3.09
2018-12-26T19:36:09.938Z,3.17
2018-12-26T19:38:39.493Z,3.13
2018-12-26T19:41:09.033Z,3.19
2018-12-26T19:43:39.116Z,3.13
2018-12-26T19:46:08.669Z,3.18
2018-12-26T19:48:38.249Z,3.24
2018-12-26T19:51:26.806Z,3.10
2018-12-26T19:54:15.639Z,3.08
2018-12-26T19:56:45.731Z,3.15
2018-12-26T19:59:15.575Z,3.16
2018-12-26T20:01:48.242Z,3.17
2018-12-26T20:04:17.011Z,3.21
2018-12-26T20:06:46.801Z,3.27
2018-12-26T20:09:16.483Z,3.14
2018-12-26T20:11:46.171Z,3.29
2018-12-26T20:14:34.864Z,3.31
2018-12-26T20:17:44.054Z,3.20
2018-12-26T20:20:13.747Z,3.18
2018-12-26T20:25:18.878Z,3.10
2018-12-26T20:27:48.599Z,3.21
2018-12-26T20:30:18.431Z,3.13
2018-12-26T20:32:48.196Z,3.20
2018-12-26T20:35:17.980Z,3.25
2018-12-26T20:37:47.576Z,3.19
2018-12-26T20:40:17.295Z,3.16
2018-12-26T20:42:46.943Z,3.21
2018-12-26T20:45:16.685Z,3.22
2018-12-26T20:47:46.364Z,3.20
2018-12-26T20:50:34.946Z,3.23
2018-12-26T20:53:04.569Z,3.24
2018-12-26T20:55:34.196Z,3.32
2018-12-26T20:58:03.770Z,3.29
2018-12-26T21:00:33.355Z,3.29
2018-12-26T21:03:02.913Z,3.28
2018-12-26T21:05:32.776Z,3.32
2018-12-26T21:08:02.378Z,3.47
2018-12-26T21:10:31.985Z,3.51
2018-12-26T21:13:01.557Z,3.53
2018-12-26T21:15:31.605Z,3.55
2018-12-26T21:18:01.170Z,3.57
2018-12-26T21:20:30.742Z,3.40
2018-12-26T21:23:19.327Z,3.46
2018-12-26T21:25:48.972Z,3.62
2018-12-26T21:28:40.853Z,3.43
2018-12-26T21:31:10.433Z,3.36
2018-12-26T21:33:40.135Z,3.48
2018-12-26T21:36:10.155Z,3.45
2018-12-26T21:38:39.718Z,3.44
2018-12-26T21:41:09.441Z,3.33
2018-12-26T21:43:38.977Z,3.33
2018-12-26T21:46:08.676Z,3.47
2018-12-26T21:51:27.117Z,3.50
2018-12-26T21:54:15.673Z,3.54
2018-12-26T21:57:04.170Z,3.66
2018-12-26T21:59:52.654Z,3.59
2018-12-26T22:02:41.592Z,3.63
2018-12-26T22:05:30.093Z,3.58
2018-12-26T22:08:18.512Z,3.65
2018-12-26T22:11:07.007Z,3.54
2018-12-26T22:13:55.500Z,3.67
2018-12-26T22:16:43.978Z,3.52
2018-12-26T22:19:32.419Z,3.63
2018-12-26T22:22:20.842Z,3.61
2018-12-26T22:25:09.284Z,3.63
2018-12-26T22:27:57.790Z,3.68
2018-12-26T22:30:46.299Z,3.67
2018-12-26T22:33:34.767Z,3.74
2018-12-26T22:36:23.221Z,3.65
2018-12-26T22:39:11.679Z,3.67
2018-12-26T22:42:00.197Z,3.69
2018-12-26T22:44:49.107Z,3.72
2018-12-26T22:47:37.465Z,3.66
2018-12-26T22:50:27.407Z,3.75
2018-12-26T22:53:16.241Z,3.71
2018-12-26T22:56:04.731Z,3.76
2018-12-26T22:58:53.305Z,3.76
2018-12-26T23:04:11.408Z,3.86
2018-12-26T23:06:59.901Z,3.89
2018-12-26T23:09:48.302Z,3.88
2018-12-26T23:12:36.800Z,3.96
2018-12-26T23:15:07.083Z,3.86
2018-12-26T23:17:55.630Z,3.97
2018-12-26T23:20:44.086Z,3.90
2018-12-26T23:23:32.588Z,3.87
2018-12-26T23:26:21.179Z,4.01
2018-12-26T23:29:09.512Z,3.93
2018-12-26T23:31:57.999Z,4.04
2018-12-26T23:34:46.520Z,3.84
2018-12-26T23:37:35.023Z,3.87
2018-12-26T23:40:23.500Z,3.60
2018-12-26T23:43:11.942Z,3.63
2018-12-26T23:46:00.567Z,3.70
2018-12-26T23:48:49.009Z,3.64
2018-12-26T23:51:37.527Z,3.77
2018-12-26T23:54:26.017Z,3.75
2018-12-26T23:57:14.494Z,3.77
